sensor_id;sensor_type;location;lat;lon;timestamp;P1;durP1;ratioP1;P2;durP2;ratioP2
70946;SDS011;58605;48.700;8.760;2023-08-06T00:01:46;16.93;;;4.60;;
70946;SDS011;58605;48.700;8.760;2023-08-06T00:04:12;5.67;;;3.73;;
70946;SDS011;58605;48.700;8.760;2023-08-06T00:06:40;5.40;;;2.83;;
70946;SDS011;58605;48.700;8.760;2023-08-06T00:09:06;7.87;;;3.70;;
70946;SDS011;58605;48.700;8.760;2023-08-06T00:11:33;4.50;;;3.93;;
70946;SDS011;58605;48.700;8.760;2023-08-06T00:13:59;5.30;;;3.60;;
70946;SDS011;58605;48.700;8.760;2023-08-06T00:16:26;5.37;;;3.43;;
70946;SDS011;58605;48.700;8.760;2023-08-06T00:18:52;3.57;;;3.23;;
70946;SDS011;58605;48.700;8.760;2023-08-06T00:21:18;4.27;;;3.33;;
70946;SDS011;58605;48.700;8.760;2023-08-06T00:23:46;4.50;;;2.97;;
70946;SDS011;58605;48.700;8.760;2023-08-06T00:26:13;4.70;;;3.87;;
70946;SDS011;58605;48.700;8.760;2023-08-06T00:28:39;6.17;;;3.43;;
70946;SDS011;58605;48.700;8.760;2023-08-06T00:31:05;6.77;;;3.40;;
70946;SDS011;58605;48.700;8.760;2023-08-06T00:33:31;4.27;;;3.13;;
70946;SDS011;58605;48.700;8.760;2023-08-06T00:35:57;4.50;;;4.00;;
70946;SDS011;58605;48.700;8.760;2023-08-06T00:38:24;5.33;;;3.40;;
70946;SDS011;58605;48.700;8.760;2023-08-06T00:40:52;12.93;;;4.30;;
70946;SDS011;58605;48.700;8.760;2023-08-06T00:43:18;285.60;;;18.03;;
70946;SDS011;58605;48.700;8.760;2023-08-06T00:45:44;342.03;;;19.00;;
70946;SDS011;58605;48.700;8.760;2023-08-06T00:48:11;280.60;;;15.63;;
70946;SDS011;58605;48.700;8.760;2023-08-06T00:50:38;265.83;;;13.07;;
70946;SDS011;58605;48.700;8.760;2023-08-06T00:53:04;159.13;;;9.33;;
70946;SDS011;58605;48.700;8.760;2023-08-06T00:55:30;86.87;;;6.97;;
70946;SDS011;58605;48.700;8.760;2023-08-06T00:58:06;189.13;;;10.77;;
70946;SDS011;58605;48.700;8.760;2023-08-06T01:00:32;241.53;;;12.20;;
70946;SDS011;58605;48.700;8.760;2023-08-06T01:02:59;235.23;;;11.73;;
70946;SDS011;58605;48.700;8.760;2023-08-06T01:05:25;221.77;;;12.33;;
70946;SDS011;58605;48.700;8.760;2023-08-06T01:07:55;116.43;;;7.80;;
70946;SDS011;58605;48.700;8.760;2023-08-06T01:10:38;166.63;;;9.43;;
70946;SDS011;58605;48.700;8.760;2023-08-06T01:13:16;220.43;;;12.43;;
70946;SDS011;58605;48.700;8.760;2023-08-06T01:15:49;163.60;;;9.83;;
70946;SDS011;58605;48.700;8.760;2023-08-06T01:18:19;116.23;;;7.17;;
70946;SDS011;58605;48.700;8.760;2023-08-06T01:20:47;110.47;;;7.53;;
70946;SDS011;58605;48.700;8.760;2023-08-06T01:23:15;104.67;;;7.50;;
70946;SDS011;58605;48.700;8.760;2023-08-06T01:25:49;53.13;;;5.90;;
70946;SDS011;58605;48.700;8.760;2023-08-06T01:28:23;10.43;;;3.37;;
70946;SDS011;58605;48.700;8.760;2023-08-06T01:30:55;6.17;;;3.60;;
70946;SDS011;58605;48.700;8.760;2023-08-06T01:33:27;5.13;;;4.20;;
70946;SDS011;58605;48.700;8.760;2023-08-06T01:35:58;7.63;;;3.90;;
70946;SDS011;58605;48.700;8.760;2023-08-06T01:38:25;5.37;;;3.00;;
70946;SDS011;58605;48.700;8.760;2023-08-06T01:40:53;4.57;;;3.23;;
70946;SDS011;58605;48.700;8.760;2023-08-06T01:43:19;4.43;;;3.03;;
70946;SDS011;58605;48.700;8.760;2023-08-06T01:45:45;4.07;;;3.27;;
70946;SDS011;58605;48.700;8.760;2023-08-06T01:48:11;5.67;;;3.63;;
70946;SDS011;58605;48.700;8.760;2023-08-06T01:50:38;4.00;;;3.20;;
70946;SDS011;58605;48.700;8.760;2023-08-06T01:53:05;3.77;;;3.33;;
70946;SDS011;58605;48.700;8.760;2023-08-06T01:55:32;5.23;;;3.23;;
70946;SDS011;58605;48.700;8.760;2023-08-06T01:57:58;8.53;;;2.80;;
70946;SDS011;58605;48.700;8.760;2023-08-06T02:00:24;4.57;;;3.23;;
70946;SDS011;58605;48.700;8.760;2023-08-06T02:02:50;5.53;;;3.37;;
70946;SDS011;58605;48.700;8.760;2023-08-06T02:05:16;4.00;;;2.83;;
70946;SDS011;58605;48.700;8.760;2023-08-06T02:07:43;5.10;;;2.43;;
70946;SDS011;58605;48.700;8.760;2023-08-06T02:10:10;5.13;;;2.77;;
70946;SDS011;58605;48.700;8.760;2023-08-06T02:12:36;6.97;;;2.93;;
70946;SDS011;58605;48.700;8.760;2023-08-06T02:15:03;4.73;;;3.07;;
70946;SDS011;58605;48.700;8.760;2023-08-06T02:17:30;2.93;;;2.63;;
70946;SDS011;58605;48.700;8.760;2023-08-06T02:19:56;4.77;;;3.03;;
70946;SDS011;58605;48.700;8.760;2023-08-06T02:22:22;3.90;;;2.60;;
70946;SDS011;58605;48.700;8.760;2023-08-06T02:24:49;12.63;;;3.20;;
70946;SDS011;58605;48.700;8.760;2023-08-06T02:27:16;5.70;;;2.97;;
70946;SDS011;58605;48.700;8.760;2023-08-06T02:29:42;4.17;;;3.07;;
70946;SDS011;58605;48.700;8.760;2023-08-06T02:32:09;3.67;;;2.50;;
70946;SDS011;58605;48.700;8.760;2023-08-06T02:34:35;5.53;;;2.67;;
70946;SDS011;58605;48.700;8.760;2023-08-06T02:37:01;4.60;;;2.97;;
70946;SDS011;58605;48.700;8.760;2023-08-06T02:39:27;4.90;;;3.13;;
70946;SDS011;58605;48.700;8.760;2023-08-06T02:41:53;9.00;;;2.93;;
70946;SDS011;58605;48.700;8.760;2023-08-06T02:44:21;3.63;;;2.70;;
70946;SDS011;58605;48.700;8.760;2023-08-06T02:46:47;3.97;;;2.30;;
70946;SDS011;58605;48.700;8.760;2023-08-06T02:49:13;3.40;;;2.87;;
70946;SDS011;58605;48.700;8.760;2023-08-06T02:51:39;2.77;;;2.43;;
70946;SDS011;58605;48.700;8.760;2023-08-06T02:54:05;5.30;;;2.37;;
70946;SDS011;58605;48.700;8.760;2023-08-06T02:56:31;9.00;;;2.50;;
70946;SDS011;58605;48.700;8.760;2023-08-06T02:58:57;3.83;;;2.90;;
70946;SDS011;58605;48.700;8.760;2023-08-06T03:01:25;3.37;;;2.47;;
70946;SDS011;58605;48.700;8.760;2023-08-06T03:03:52;4.03;;;2.57;;
70946;SDS011;58605;48.700;8.760;2023-08-06T03:06:18;3.70;;;2.40;;
70946;SDS011;58605;48.700;8.760;2023-08-06T03:08:44;2.63;;;2.40;;
70946;SDS011;58605;48.700;8.760;2023-08-06T03:11:10;2.70;;;1.80;;
70946;SDS011;58605;48.700;8.760;2023-08-06T03:13:36;5.13;;;2.47;;
70946;SDS011;58605;48.700;8.760;2023-08-06T03:16:02;2.23;;;1.60;;
70946;SDS011;58605;48.700;8.760;2023-08-06T03:18:30;3.43;;;2.20;;
70946;SDS011;58605;48.700;8.760;2023-08-06T03:20:56;3.63;;;2.60;;
70946;SDS011;58605;48.700;8.760;2023-08-06T03:23:22;6.80;;;1.70;;
70946;SDS011;58605;48.700;8.760;2023-08-06T03:25:48;2.77;;;2.00;;
70946;SDS011;58605;48.700;8.760;2023-08-06T03:28:14;2.67;;;2.00;;
70946;SDS011;58605;48.700;8.760;2023-08-06T03:30:41;1.93;;;1.57;;
70946;SDS011;58605;48.700;8.760;2023-08-06T03:33:07;2.00;;;1.80;;
70946;SDS011;58605;48.700;8.760;2023-08-06T03:35:35;2.93;;;1.60;;
70946;SDS011;58605;48.700;8.760;2023-08-06T03:38:01;2.67;;;2.17;;
70946;SDS011;58605;48.700;8.760;2023-08-06T03:40:27;2.97;;;1.93;;
70946;SDS011;58605;48.700;8.760;2023-08-06T03:42:53;3.37;;;1.90;;
70946;SDS011;58605;48.700;8.760;2023-08-06T03:45:19;2.47;;;2.00;;
70946;SDS011;58605;48.700;8.760;2023-08-06T03:47:45;4.53;;;2.30;;
70946;SDS011;58605;48.700;8.760;2023-08-06T03:50:11;3.93;;;2.20;;
70946;SDS011;58605;48.700;8.760;2023-08-06T03:52:39;2.70;;;1.60;;
70946;SDS011;58605;48.700;8.760;2023-08-06T03:55:05;3.23;;;2.17;;
70946;SDS011;58605;48.700;8.760;2023-08-06T03:57:31;7.13;;;2.10;;
70946;SDS011;58605;48.700;8.760;2023-08-06T03:59:57;7.07;;;1.60;;
70946;SDS011;58605;48.700;8.760;2023-08-06T04:02:23;3.10;;;1.83;;
70946;SDS011;58605;48.700;8.760;2023-08-06T04:04:49;6.20;;;2.00;;
70946;SDS011;58605;48.700;8.760;2023-08-06T04:07:15;2.43;;;1.90;;
70946;SDS011;58605;48.700;8.760;2023-08-06T04:12:25;3.10;;;1.73;;
70946;SDS011;58605;48.700;8.760;2023-08-06T04:14:52;4.93;;;2.10;;
70946;SDS011;58605;48.700;8.760;2023-08-06T04:17:19;2.77;;;1.60;;
70946;SDS011;58605;48.700;8.760;2023-08-06T04:19:46;2.00;;;1.67;;
70946;SDS011;58605;48.700;8.760;2023-08-06T04:22:13;3.43;;;1.50;;
70946;SDS011;58605;48.700;8.760;2023-08-06T04:24:39;1.37;;;1.27;;
70946;SDS011;58605;48.700;8.760;2023-08-06T04:27:07;2.53;;;1.30;;
70946;SDS011;58605;48.700;8.760;2023-08-06T04:29:34;1.40;;;1.20;;
70946;SDS011;58605;48.700;8.760;2023-08-06T04:32:00;2.23;;;1.80;;
70946;SDS011;58605;48.700;8.760;2023-08-06T04:34:26;2.90;;;1.50;;
70946;SDS011;58605;48.700;8.760;2023-08-06T04:36:52;2.83;;;1.30;;
70946;SDS011;58605;48.700;8.760;2023-08-06T04:39:18;1.50;;;1.40;;
70946;SDS011;58605;48.700;8.760;2023-08-06T04:41:44;1.23;;;1.07;;
70946;SDS011;58605;48.700;8.760;2023-08-06T04:44:12;1.27;;;0.97;;
70946;SDS011;58605;48.700;8.760;2023-08-06T04:46:38;2.47;;;1.47;;
70946;SDS011;58605;48.700;8.760;2023-08-06T04:49:04;2.80;;;1.37;;
70946;SDS011;58605;48.700;8.760;2023-08-06T04:51:30;2.27;;;1.20;;
70946;SDS011;58605;48.700;8.760;2023-08-06T04:53:56;2.80;;;1.47;;
70946;SDS011;58605;48.700;8.760;2023-08-06T04:56:22;3.00;;;1.23;;
70946;SDS011;58605;48.700;8.760;2023-08-06T04:58:49;1.43;;;1.20;;
70946;SDS011;58605;48.700;8.760;2023-08-06T05:01:17;1.40;;;1.10;;
70946;SDS011;58605;48.700;8.760;2023-08-06T05:03:43;1.27;;;1.17;;
70946;SDS011;58605;48.700;8.760;2023-08-06T05:06:09;2.27;;;1.20;;
70946;SDS011;58605;48.700;8.760;2023-08-06T05:08:35;0.93;;;0.93;;
70946;SDS011;58605;48.700;8.760;2023-08-06T05:11:01;2.63;;;0.90;;
70946;SDS011;58605;48.700;8.760;2023-08-06T05:13:28;3.80;;;1.30;;
70946;SDS011;58605;48.700;8.760;2023-08-06T05:15:54;0.93;;;0.80;;
70946;SDS011;58605;48.700;8.760;2023-08-06T05:18:21;3.43;;;1.20;;
70946;SDS011;58605;48.700;8.760;2023-08-06T05:20:47;1.00;;;0.90;;
70946;SDS011;58605;48.700;8.760;2023-08-06T05:23:13;1.13;;;0.83;;
70946;SDS011;58605;48.700;8.760;2023-08-06T05:25:40;2.33;;;1.10;;
70946;SDS011;58605;48.700;8.760;2023-08-06T05:28:06;0.97;;;0.80;;
70946;SDS011;58605;48.700;8.760;2023-08-06T05:30:32;1.17;;;1.07;;
70946;SDS011;58605;48.700;8.760;2023-08-06T05:32:58;1.63;;;1.03;;
70946;SDS011;58605;48.700;8.760;2023-08-06T05:35:26;1.17;;;0.70;;
70946;SDS011;58605;48.700;8.760;2023-08-06T05:37:52;1.27;;;0.80;;
70946;SDS011;58605;48.700;8.760;2023-08-06T05:40:18;1.27;;;0.63;;
70946;SDS011;58605;48.700;8.760;2023-08-06T05:42:45;2.33;;;0.83;;
70946;SDS011;58605;48.700;8.760;2023-08-06T05:45:11;1.63;;;0.87;;
70946;SDS011;58605;48.700;8.760;2023-08-06T05:47:37;0.60;;;0.60;;
70946;SDS011;58605;48.700;8.760;2023-08-06T05:50:03;1.90;;;0.80;;
70946;SDS011;58605;48.700;8.760;2023-08-06T05:52:31;0.60;;;0.60;;
70946;SDS011;58605;48.700;8.760;2023-08-06T05:54:57;2.47;;;0.90;;
70946;SDS011;58605;48.700;8.760;2023-08-06T05:57:23;1.40;;;0.67;;
70946;SDS011;58605;48.700;8.760;2023-08-06T05:59:49;1.80;;;0.90;;
70946;SDS011;58605;48.700;8.760;2023-08-06T06:02:15;0.90;;;0.63;;
70946;SDS011;58605;48.700;8.760;2023-08-06T06:04:43;1.03;;;0.87;;
70946;SDS011;58605;48.700;8.760;2023-08-06T06:07:09;0.93;;;0.60;;
70946;SDS011;58605;48.700;8.760;2023-08-06T06:09:37;1.53;;;0.60;;
70946;SDS011;58605;48.700;8.760;2023-08-06T06:12:05;0.70;;;0.70;;
70946;SDS011;58605;48.700;8.760;2023-08-06T06:14:31;0.87;;;0.70;;
70946;SDS011;58605;48.700;8.760;2023-08-06T06:16:58;0.50;;;0.50;;
70946;SDS011;58605;48.700;8.760;2023-08-06T06:19:25;1.10;;;0.67;;
70946;SDS011;58605;48.700;8.760;2023-08-06T06:21:51;0.57;;;0.57;;
70946;SDS011;58605;48.700;8.760;2023-08-06T06:24:18;0.63;;;0.60;;
70946;SDS011;58605;48.700;8.760;2023-08-06T06:26:46;0.63;;;0.50;;
70946;SDS011;58605;48.700;8.760;2023-08-06T06:29:12;1.20;;;0.60;;
70946;SDS011;58605;48.700;8.760;2023-08-06T06:31:38;0.73;;;0.67;;
70946;SDS011;58605;48.700;8.760;2023-08-06T06:34:04;0.50;;;0.50;;
70946;SDS011;58605;48.700;8.760;2023-08-06T06:36:31;0.40;;;0.40;;
70946;SDS011;58605;48.700;8.760;2023-08-06T06:38:57;0.60;;;0.60;;
70946;SDS011;58605;48.700;8.760;2023-08-06T06:41:23;1.13;;;0.60;;
70946;SDS011;58605;48.700;8.760;2023-08-06T06:43:51;0.73;;;0.53;;
70946;SDS011;58605;48.700;8.760;2023-08-06T06:46:17;0.30;;;0.30;;
70946;SDS011;58605;48.700;8.760;2023-08-06T06:48:43;0.63;;;0.50;;
70946;SDS011;58605;48.700;8.760;2023-08-06T06:51:09;0.40;;;0.40;;
70946;SDS011;58605;48.700;8.760;2023-08-06T06:53:35;1.90;;;0.50;;
70946;SDS011;58605;48.700;8.760;2023-08-06T06:56:02;0.50;;;0.40;;
70946;SDS011;58605;48.700;8.760;2023-08-06T06:58:29;1.23;;;0.50;;
70946;SDS011;58605;48.700;8.760;2023-08-06T07:00:57;0.60;;;0.60;;
70946;SDS011;58605;48.700;8.760;2023-08-06T07:03:23;0.40;;;0.40;;
70946;SDS011;58605;48.700;8.760;2023-08-06T07:05:50;0.40;;;0.40;;
70946;SDS011;58605;48.700;8.760;2023-08-06T07:08:16;1.17;;;0.40;;
70946;SDS011;58605;48.700;8.760;2023-08-06T07:10:42;0.30;;;0.30;;
70946;SDS011;58605;48.700;8.760;2023-08-06T07:13:09;1.17;;;0.50;;
70946;SDS011;58605;48.700;8.760;2023-08-06T07:15:35;0.43;;;0.40;;
70946;SDS011;58605;48.700;8.760;2023-08-06T07:18:03;0.37;;;0.37;;
70946;SDS011;58605;48.700;8.760;2023-08-06T07:20:29;0.40;;;0.40;;
70946;SDS011;58605;48.700;8.760;2023-08-06T07:22:56;0.57;;;0.57;;
70946;SDS011;58605;48.700;8.760;2023-08-06T07:25:23;0.27;;;0.27;;
70946;SDS011;58605;48.700;8.760;2023-08-06T07:27:49;1.43;;;0.33;;
70946;SDS011;58605;48.700;8.760;2023-08-06T07:30:15;0.50;;;0.50;;
70946;SDS011;58605;48.700;8.760;2023-08-06T07:32:42;1.50;;;0.40;;
70946;SDS011;58605;48.700;8.760;2023-08-06T07:35:10;0.40;;;0.40;;
70946;SDS011;58605;48.700;8.760;2023-08-06T07:37:37;0.50;;;0.50;;
70946;SDS011;58605;48.700;8.760;2023-08-06T07:40:04;0.30;;;0.30;;
70946;SDS011;58605;48.700;8.760;2023-08-06T07:42:30;0.40;;;0.40;;
70946;SDS011;58605;48.700;8.760;2023-08-06T07:44:57;0.40;;;0.40;;
70946;SDS011;58605;48.700;8.760;2023-08-06T07:47:24;0.37;;;0.30;;
70946;SDS011;58605;48.700;8.760;2023-08-06T07:49:50;0.20;;;0.20;;
70946;SDS011;58605;48.700;8.760;2023-08-06T07:52:18;0.30;;;0.30;;
70946;SDS011;58605;48.700;8.760;2023-08-06T07:54:44;0.17;;;0.17;;
70946;SDS011;58605;48.700;8.760;2023-08-06T07:57:10;0.40;;;0.40;;
70946;SDS011;58605;48.700;8.760;2023-08-06T07:59:36;0.40;;;0.40;;
70946;SDS011;58605;48.700;8.760;2023-08-06T08:02:02;0.30;;;0.30;;
70946;SDS011;58605;48.700;8.760;2023-08-06T08:04:29;0.30;;;0.30;;
70946;SDS011;58605;48.700;8.760;2023-08-06T08:06:55;0.10;;;0.10;;
70946;SDS011;58605;48.700;8.760;2023-08-06T08:09:23;0.30;;;0.30;;
70946;SDS011;58605;48.700;8.760;2023-08-06T08:11:49;0.30;;;0.30;;
70946;SDS011;58605;48.700;8.760;2023-08-06T08:14:15;0.47;;;0.47;;
70946;SDS011;58605;48.700;8.760;2023-08-06T08:16:42;0.43;;;0.43;;
70946;SDS011;58605;48.700;8.760;2023-08-06T08:19:08;0.37;;;0.37;;
70946;SDS011;58605;48.700;8.760;2023-08-06T08:21:34;0.20;;;0.20;;
70946;SDS011;58605;48.700;8.760;2023-08-06T08:24:00;0.30;;;0.30;;
70946;SDS011;58605;48.700;8.760;2023-08-06T08:26:28;0.33;;;0.20;;
70946;SDS011;58605;48.700;8.760;2023-08-06T08:28:54;0.40;;;0.40;;
70946;SDS011;58605;48.700;8.760;2023-08-06T08:31:21;1.50;;;0.30;;
70946;SDS011;58605;48.700;8.760;2023-08-06T08:33:48;0.50;;;0.50;;
70946;SDS011;58605;48.700;8.760;2023-08-06T08:36:14;0.60;;;0.30;;
70946;SDS011;58605;48.700;8.760;2023-08-06T08:38:40;0.20;;;0.20;;
70946;SDS011;58605;48.700;8.760;2023-08-06T08:41:06;0.40;;;0.40;;
70946;SDS011;58605;48.700;8.760;2023-08-06T08:43:36;0.50;;;0.37;;
70946;SDS011;58605;48.700;8.760;2023-08-06T08:46:05;1.13;;;0.30;;
70946;SDS011;58605;48.700;8.760;2023-08-06T08:48:33;0.30;;;0.30;;
70946;SDS011;58605;48.700;8.760;2023-08-06T08:50:59;0.20;;;0.20;;
70946;SDS011;58605;48.700;8.760;2023-08-06T08:53:56;0.20;;;0.20;;
70946;SDS011;58605;48.700;8.760;2023-08-06T08:56:22;0.30;;;0.30;;
70946;SDS011;58605;48.700;8.760;2023-08-06T08:58:50;0.30;;;0.30;;
70946;SDS011;58605;48.700;8.760;2023-08-06T09:01:27;0.20;;;0.20;;
70946;SDS011;58605;48.700;8.760;2023-08-06T09:03:54;0.60;;;0.30;;
70946;SDS011;58605;48.700;8.760;2023-08-06T09:06:21;0.47;;;0.40;;
70946;SDS011;58605;48.700;8.760;2023-08-06T09:08:50;0.30;;;0.30;;
70946;SDS011;58605;48.700;8.760;2023-08-06T09:11:21;1.70;;;0.47;;
70946;SDS011;58605;48.700;8.760;2023-08-06T09:13:50;0.33;;;0.33;;
70946;SDS011;58605;48.700;8.760;2023-08-06T09:16:16;0.27;;;0.27;;
70946;SDS011;58605;48.700;8.760;2023-08-06T09:18:42;0.37;;;0.30;;
70946;SDS011;58605;48.700;8.760;2023-08-06T09:21:13;0.30;;;0.30;;
70946;SDS011;58605;48.700;8.760;2023-08-06T09:23:40;0.20;;;0.20;;
70946;SDS011;58605;48.700;8.760;2023-08-06T09:26:06;0.40;;;0.40;;
70946;SDS011;58605;48.700;8.760;2023-08-06T09:28:36;0.30;;;0.30;;
70946;SDS011;58605;48.700;8.760;2023-08-06T09:31:09;1.53;;;0.57;;
70946;SDS011;58605;48.700;8.760;2023-08-06T09:33:36;0.40;;;0.40;;
70946;SDS011;58605;48.700;8.760;2023-08-06T09:36:07;0.50;;;0.50;;
70946;SDS011;58605;48.700;8.760;2023-08-06T09:38:37;0.30;;;0.30;;
70946;SDS011;58605;48.700;8.760;2023-08-06T09:41:05;0.30;;;0.30;;
70946;SDS011;58605;48.700;8.760;2023-08-06T09:43:34;0.37;;;0.37;;
70946;SDS011;58605;48.700;8.760;2023-08-06T09:46:12;0.20;;;0.20;;
70946;SDS011;58605;48.700;8.760;2023-08-06T09:48:38;0.20;;;0.20;;
70946;SDS011;58605;48.700;8.760;2023-08-06T09:51:06;0.90;;;0.37;;
70946;SDS011;58605;48.700;8.760;2023-08-06T09:53:35;0.37;;;0.37;;
70946;SDS011;58605;48.700;8.760;2023-08-06T09:56:02;0.30;;;0.30;;
70946;SDS011;58605;48.700;8.760;2023-08-06T09:58:29;0.43;;;0.23;;
70946;SDS011;58605;48.700;8.760;2023-08-06T10:00:57;0.37;;;0.37;;
70946;SDS011;58605;48.700;8.760;2023-08-06T10:03:31;0.33;;;0.33;;
70946;SDS011;58605;48.700;8.760;2023-08-06T10:05:59;0.33;;;0.33;;
70946;SDS011;58605;48.700;8.760;2023-08-06T10:08:27;0.43;;;0.43;;
70946;SDS011;58605;48.700;8.760;2023-08-06T10:10:53;0.67;;;0.63;;
70946;SDS011;58605;48.700;8.760;2023-08-06T10:13:19;0.50;;;0.20;;
70946;SDS011;58605;48.700;8.760;2023-08-06T10:15:47;1.13;;;0.53;;
70946;SDS011;58605;48.700;8.760;2023-08-06T10:18:14;1.00;;;0.50;;
70946;SDS011;58605;48.700;8.760;2023-08-06T10:20:47;1.40;;;0.47;;
70946;SDS011;58605;48.700;8.760;2023-08-06T10:23:14;0.40;;;0.40;;
70946;SDS011;58605;48.700;8.760;2023-08-06T10:25:40;0.50;;;0.50;;
70946;SDS011;58605;48.700;8.760;2023-08-06T10:28:08;0.40;;;0.40;;
70946;SDS011;58605;48.700;8.760;2023-08-06T10:30:41;0.87;;;0.40;;
70946;SDS011;58605;48.700;8.760;2023-08-06T10:33:08;3.10;;;0.40;;
70946;SDS011;58605;48.700;8.760;2023-08-06T10:35:34;0.70;;;0.60;;
70946;SDS011;58605;48.700;8.760;2023-08-06T10:38:07;0.40;;;0.40;;
70946;SDS011;58605;48.700;8.760;2023-08-06T10:40:35;0.37;;;0.37;;
70946;SDS011;58605;48.700;8.760;2023-08-06T10:43:02;0.27;;;0.27;;
70946;SDS011;58605;48.700;8.760;2023-08-06T10:45:28;0.40;;;0.40;;
70946;SDS011;58605;48.700;8.760;2023-08-06T10:47:56;0.47;;;0.30;;
70946;SDS011;58605;48.700;8.760;2023-08-06T10:50:22;0.40;;;0.40;;
70946;SDS011;58605;48.700;8.760;2023-08-06T10:52:49;0.40;;;0.40;;
70946;SDS011;58605;48.700;8.760;2023-08-06T10:55:23;0.50;;;0.50;;
70946;SDS011;58605;48.700;8.760;2023-08-06T10:57:50;0.40;;;0.40;;
70946;SDS011;58605;48.700;8.760;2023-08-06T11:00:16;0.50;;;0.50;;
70946;SDS011;58605;48.700;8.760;2023-08-06T11:02:42;0.53;;;0.53;;
70946;SDS011;58605;48.700;8.760;2023-08-06T11:05:11;0.60;;;0.60;;
70946;SDS011;58605;48.700;8.760;2023-08-06T11:07:37;0.80;;;0.80;;
70946;SDS011;58605;48.700;8.760;2023-08-06T11:10:04;0.50;;;0.50;;
70946;SDS011;58605;48.700;8.760;2023-08-06T11:12:34;0.87;;;0.70;;
70946;SDS011;58605;48.700;8.760;2023-08-06T11:15:00;1.10;;;0.80;;
70946;SDS011;58605;48.700;8.760;2023-08-06T11:17:27;1.93;;;0.90;;
70946;SDS011;58605;48.700;8.760;2023-08-06T11:19:54;0.97;;;0.97;;
70946;SDS011;58605;48.700;8.760;2023-08-06T11:22:20;1.10;;;0.80;;
70946;SDS011;58605;48.700;8.760;2023-08-06T11:24:47;0.90;;;0.90;;
70946;SDS011;58605;48.700;8.760;2023-08-06T11:27:13;0.93;;;0.90;;
70946;SDS011;58605;48.700;8.760;2023-08-06T11:29:41;1.00;;;0.87;;
70946;SDS011;58605;48.700;8.760;2023-08-06T11:32:07;0.90;;;0.90;;
70946;SDS011;58605;48.700;8.760;2023-08-06T11:34:34;0.60;;;0.60;;
70946;SDS011;58605;48.700;8.760;2023-08-06T11:37:02;1.10;;;1.00;;
70946;SDS011;58605;48.700;8.760;2023-08-06T11:39:36;0.67;;;0.67;;
70946;SDS011;58605;48.700;8.760;2023-08-06T11:42:03;0.70;;;0.70;;
70946;SDS011;58605;48.700;8.760;2023-08-06T11:44:29;0.93;;;0.90;;
70946;SDS011;58605;48.700;8.760;2023-08-06T11:47:01;1.47;;;1.07;;
70946;SDS011;58605;48.700;8.760;2023-08-06T11:49:37;0.70;;;0.70;;
70946;SDS011;58605;48.700;8.760;2023-08-06T11:52:07;0.70;;;0.70;;
70946;SDS011;58605;48.700;8.760;2023-08-06T11:54:35;1.30;;;0.90;;
70946;SDS011;58605;48.700;8.760;2023-08-06T11:57:02;0.67;;;0.67;;
70946;SDS011;58605;48.700;8.760;2023-08-06T11:59:30;1.07;;;0.80;;
70946;SDS011;58605;48.700;8.760;2023-08-06T12:01:56;0.67;;;0.67;;
70946;SDS011;58605;48.700;8.760;2023-08-06T12:04:23;1.80;;;1.00;;
70946;SDS011;58605;48.700;8.760;2023-08-06T12:06:49;2.57;;;1.00;;
70946;SDS011;58605;48.700;8.760;2023-08-06T12:09:16;1.67;;;0.80;;
70946;SDS011;58605;48.700;8.760;2023-08-06T12:11:42;0.87;;;0.80;;
70946;SDS011;58605;48.700;8.760;2023-08-06T12:14:08;1.10;;;1.00;;
70946;SDS011;58605;48.700;8.760;2023-08-06T12:16:34;0.97;;;0.80;;
70946;SDS011;58605;48.700;8.760;2023-08-06T12:19:01;1.60;;;1.07;;
70946;SDS011;58605;48.700;8.760;2023-08-06T12:21:28;1.30;;;1.00;;
70946;SDS011;58605;48.700;8.760;2023-08-06T12:23:55;1.00;;;1.00;;
70946;SDS011;58605;48.700;8.760;2023-08-06T12:26:21;1.20;;;1.00;;
70946;SDS011;58605;48.700;8.760;2023-08-06T12:28:47;1.00;;;0.90;;
70946;SDS011;58605;48.700;8.760;2023-08-06T12:31:14;0.93;;;0.93;;
70946;SDS011;58605;48.700;8.760;2023-08-06T12:33:40;2.40;;;1.20;;
70946;SDS011;58605;48.700;8.760;2023-08-06T12:36:06;1.17;;;1.07;;
70946;SDS011;58605;48.700;8.760;2023-08-06T12:38:34;1.80;;;1.10;;
70946;SDS011;58605;48.700;8.760;2023-08-06T12:41:00;1.60;;;1.23;;
70946;SDS011;58605;48.700;8.760;2023-08-06T12:43:26;1.87;;;1.30;;
70946;SDS011;58605;48.700;8.760;2023-08-06T12:45:52;1.40;;;1.20;;
70946;SDS011;58605;48.700;8.760;2023-08-06T12:48:18;1.33;;;1.17;;
70946;SDS011;58605;48.700;8.760;2023-08-06T12:50:44;3.83;;;1.30;;
70946;SDS011;58605;48.700;8.760;2023-08-06T12:53:10;1.40;;;1.30;;
70946;SDS011;58605;48.700;8.760;2023-08-06T12:55:38;3.70;;;1.83;;
70946;SDS011;58605;48.700;8.760;2023-08-06T12:58:05;1.03;;;0.90;;
70946;SDS011;58605;48.700;8.760;2023-08-06T13:00:31;2.00;;;1.40;;
70946;SDS011;58605;48.700;8.760;2023-08-06T13:02:59;2.03;;;1.00;;
70946;SDS011;58605;48.700;8.760;2023-08-06T13:05:25;1.10;;;1.00;;
70946;SDS011;58605;48.700;8.760;2023-08-06T13:07:51;0.80;;;0.80;;
70946;SDS011;58605;48.700;8.760;2023-08-06T13:10:17;1.00;;;0.90;;
70946;SDS011;58605;48.700;8.760;2023-08-06T13:12:45;1.27;;;1.17;;
70946;SDS011;58605;48.700;8.760;2023-08-06T13:15:11;0.93;;;0.90;;
70946;SDS011;58605;48.700;8.760;2023-08-06T13:17:39;1.20;;;1.10;;
70946;SDS011;58605;48.700;8.760;2023-08-06T13:20:06;1.27;;;1.00;;
70946;SDS011;58605;48.700;8.760;2023-08-06T13:22:32;1.97;;;1.20;;
70946;SDS011;58605;48.700;8.760;2023-08-06T13:24:59;1.10;;;1.00;;
70946;SDS011;58605;48.700;8.760;2023-08-06T13:27:25;2.23;;;1.00;;
70946;SDS011;58605;48.700;8.760;2023-08-06T13:29:52;2.80;;;1.10;;
70946;SDS011;58605;48.700;8.760;2023-08-06T13:32:19;1.13;;;1.03;;
70946;SDS011;58605;48.700;8.760;2023-08-06T13:34:45;2.10;;;1.10;;
70946;SDS011;58605;48.700;8.760;2023-08-06T13:37:11;1.20;;;1.10;;
70946;SDS011;58605;48.700;8.760;2023-08-06T13:39:37;2.97;;;1.40;;
70946;SDS011;58605;48.700;8.760;2023-08-06T13:42:03;1.23;;;1.00;;
70946;SDS011;58605;48.700;8.760;2023-08-06T13:44:29;0.87;;;0.87;;
70946;SDS011;58605;48.700;8.760;2023-08-06T13:47:02;4.90;;;1.27;;
70946;SDS011;58605;48.700;8.760;2023-08-06T13:49:28;0.97;;;0.93;;
70946;SDS011;58605;48.700;8.760;2023-08-06T13:51:54;1.20;;;1.10;;
70946;SDS011;58605;48.700;8.760;2023-08-06T13:54:20;1.23;;;1.10;;
70946;SDS011;58605;48.700;8.760;2023-08-06T13:56:46;1.00;;;1.00;;
70946;SDS011;58605;48.700;8.760;2023-08-06T13:59:12;1.37;;;1.27;;
70946;SDS011;58605;48.700;8.760;2023-08-06T14:01:39;1.10;;;1.00;;
70946;SDS011;58605;48.700;8.760;2023-08-06T14:04:07;0.93;;;0.90;;
70946;SDS011;58605;48.700;8.760;2023-08-06T14:06:33;1.83;;;1.10;;
70946;SDS011;58605;48.700;8.760;2023-08-06T14:08:59;1.13;;;1.03;;
70946;SDS011;58605;48.700;8.760;2023-08-06T14:11:25;1.20;;;1.10;;
70946;SDS011;58605;48.700;8.760;2023-08-06T14:13:51;1.63;;;1.10;;
70946;SDS011;58605;48.700;8.760;2023-08-06T14:16:18;0.80;;;0.80;;
70946;SDS011;58605;48.700;8.760;2023-08-06T14:18:44;2.00;;;1.20;;
70946;SDS011;58605;48.700;8.760;2023-08-06T14:21:12;0.83;;;0.73;;
70946;SDS011;58605;48.700;8.760;2023-08-06T14:23:38;0.97;;;0.80;;
70946;SDS011;58605;48.700;8.760;2023-08-06T14:26:06;0.90;;;0.90;;
70946;SDS011;58605;48.700;8.760;2023-08-06T14:28:33;1.17;;;1.07;;
70946;SDS011;58605;48.700;8.760;2023-08-06T14:30:59;2.20;;;1.10;;
70946;SDS011;58605;48.700;8.760;2023-08-06T14:33:25;1.00;;;0.63;;
70946;SDS011;58605;48.700;8.760;2023-08-06T14:35:51;0.90;;;0.90;;
70946;SDS011;58605;48.700;8.760;2023-08-06T14:38:19;0.90;;;0.90;;
70946;SDS011;58605;48.700;8.760;2023-08-06T14:40:45;1.47;;;1.10;;
70946;SDS011;58605;48.700;8.760;2023-08-06T14:43:11;1.10;;;0.90;;
70946;SDS011;58605;48.700;8.760;2023-08-06T14:45:37;1.93;;;1.10;;
70946;SDS011;58605;48.700;8.760;2023-08-06T14:48:04;0.97;;;0.90;;